createdAt,value
2019-05-17T00:01:39.205Z,1.50
2019-05-17T00:04:07.208Z,1.60
2019-05-17T00:08:59.725Z,1.30
2019-05-17T00:11:27.346Z,1.50
2019-05-17T00:13:53.796Z,1.65
2019-05-17T00:16:20.019Z,1.87
2019-05-17T00:18:46.426Z,1.42
2019-05-17T00:21:12.785Z,1.90
2019-05-17T00:23:38.997Z,1.60
2019-05-17T00:26:07.149Z,1.60
2019-05-17T00:28:33.738Z,1.70
2019-05-17T00:30:59.957Z,1.45
2019-05-17T00:33:27.232Z,1.90
2019-05-17T00:35:53.625Z,1.80
2019-05-17T00:38:19.837Z,1.92
2019-05-17T00:40:47.051Z,1.50
2019-05-17T00:43:13.657Z,1.82
2019-05-17T00:45:39.883Z,1.75
2019-05-17T00:48:06.662Z,2.02
2019-05-17T00:50:33.217Z,1.60
2019-05-17T00:52:59.439Z,1.72
2019-05-17T00:55:26.842Z,1.70
2019-05-17T00:57:53.261Z,1.85
2019-05-17T01:00:19.865Z,1.60
2019-05-17T01:02:46.744Z,1.52
2019-05-17T01:05:14.001Z,1.72
2019-05-17T01:07:40.218Z,1.90
2019-05-17T01:10:07.538Z,1.62
2019-05-17T01:12:33.793Z,1.60
2019-05-17T01:15:00.081Z,1.75
2019-05-17T01:17:27.126Z,1.80
2019-05-17T01:19:53.544Z,1.77
2019-05-17T01:22:19.764Z,1.60
2019-05-17T01:24:46.326Z,1.85
2019-05-17T01:27:12.805Z,1.87
2019-05-17T01:29:39.926Z,1.75
2019-05-17T01:32:06.815Z,1.57
2019-05-17T01:34:33.261Z,1.75
2019-05-17T01:36:59.470Z,1.72
2019-05-17T01:39:26.841Z,1.90
2019-05-17T01:41:53.221Z,2.10
2019-05-17T01:44:19.433Z,1.98
2019-05-17T01:46:46.589Z,1.92
2019-05-17T01:49:12.947Z,1.92
2019-05-17T01:51:39.261Z,1.52
2019-05-17T01:54:06.864Z,1.80
2019-05-17T01:56:33.322Z,2.20
2019-05-17T01:58:59.621Z,1.67
2019-05-17T02:01:27.579Z,1.70
2019-05-17T02:03:53.989Z,2.10
2019-05-17T02:06:20.202Z,1.82
2019-05-17T02:08:47.485Z,1.60
2019-05-17T02:11:14.046Z,2.02
2019-05-17T02:13:40.256Z,1.62
2019-05-17T02:16:07.171Z,2.08
2019-05-17T02:23:28.833Z,1.80
2019-05-17T02:25:57.146Z,1.60
2019-05-17T02:28:23.389Z,2.10
2019-05-17T02:30:52.889Z,2.08
2019-05-17T02:35:44.161Z,1.62
2019-05-17T02:38:13.053Z,1.77
2019-05-17T02:40:38.514Z,2.00
2019-05-17T02:43:04.848Z,2.10
2019-05-17T02:45:32.854Z,1.80
2019-05-17T02:50:25.618Z,2.27
2019-05-17T02:52:52.769Z,2.30
2019-05-17T02:55:19.483Z,2.02
2019-05-17T02:57:45.803Z,1.55
2019-05-17T03:00:13.574Z,1.92
2019-05-17T03:02:42.679Z,2.22
2019-05-17T03:05:08.873Z,1.77
2019-05-17T03:07:35.178Z,1.98
2019-05-17T03:10:17.014Z,1.80
2019-05-17T03:12:32.636Z,2.20
2019-05-17T03:14:57.941Z,2.00
2019-05-17T03:17:24.170Z,1.98
2019-05-17T03:19:53.030Z,1.85
2019-05-17T03:22:18.494Z,1.55
2019-05-17T03:24:44.742Z,1.82
2019-05-17T03:27:13.473Z,2.30
2019-05-17T03:29:42.347Z,1.92
2019-05-17T03:32:09.583Z,2.10
2019-05-17T03:34:37.440Z,2.05
2019-05-17T03:39:33.351Z,2.00
2019-05-17T03:42:02.413Z,1.72
2019-05-17T03:44:27.878Z,2.15
2019-05-17T03:46:54.105Z,1.87
2019-05-17T03:49:22.375Z,2.00
2019-05-17T03:54:14.732Z,1.80
2019-05-17T03:56:42.750Z,2.05
2019-05-17T04:01:35.352Z,1.57
2019-05-17T04:04:02.920Z,1.70
2019-05-17T04:06:32.856Z,1.98
2019-05-17T04:08:58.716Z,1.87
2019-05-17T04:11:31.562Z,1.80
2019-05-17T04:16:23.597Z,1.87
2019-05-17T04:18:48.576Z,2.05
2019-05-17T04:21:14.795Z,2.00
2019-05-17T04:23:42.929Z,1.90
2019-05-17T04:26:09.443Z,1.70
2019-05-17T04:28:35.664Z,1.65
2019-05-17T04:31:03.110Z,1.50
2019-05-17T04:33:29.630Z,1.50
2019-05-17T04:35:55.858Z,1.72
2019-05-17T04:38:23.591Z,1.52
2019-05-17T04:40:53.450Z,1.65
2019-05-17T04:43:18.336Z,1.30
2019-05-17T04:45:44.678Z,1.60
2019-05-17T04:48:13.254Z,1.87
2019-05-17T04:50:39.015Z,1.90
2019-05-17T04:53:05.338Z,1.40
2019-05-17T04:55:34.157Z,1.65
2019-05-17T04:58:03.472Z,1.60
2019-05-17T05:02:54.062Z,1.50
2019-05-17T05:05:22.809Z,1.70
2019-05-17T05:07:48.631Z,1.70
2019-05-17T05:10:15.138Z,1.55
2019-05-17T05:12:43.430Z,1.60
2019-05-17T05:15:12.205Z,1.65
2019-05-17T05:17:38.625Z,1.42
2019-05-17T05:20:05.744Z,1.45
2019-05-17T05:22:33.020Z,1.57
2019-05-17T05:25:01.962Z,1.67
2019-05-17T05:27:27.727Z,1.72
2019-05-17T05:29:54.073Z,1.45
2019-05-17T05:32:22.065Z,1.50
2019-05-17T05:34:48.442Z,1.50
2019-05-17T05:37:14.677Z,1.62
2019-05-17T05:39:41.992Z,1.60
2019-05-17T05:42:11.510Z,1.30
2019-05-17T05:44:36.445Z,1.72
2019-05-17T05:47:02.761Z,1.50
2019-05-17T05:49:32.095Z,1.83
2019-05-17T05:54:24.417Z,1.40
2019-05-17T05:56:52.471Z,1.40
2019-05-17T05:59:18.949Z,1.52
2019-05-17T06:01:45.261Z,1.57
2019-05-17T06:04:11.860Z,1.80
2019-05-17T06:06:38.213Z,2.17
2019-05-17T06:09:06.890Z,1.95
2019-05-17T06:11:33.109Z,1.42
2019-05-17T06:14:01.460Z,1.80
2019-05-17T06:16:27.474Z,1.40
2019-05-17T06:18:53.714Z,2.00
2019-05-17T06:21:22.458Z,1.80
2019-05-17T06:23:48.053Z,1.40
2019-05-17T06:26:14.277Z,1.30
2019-05-17T06:28:42.502Z,1.42
2019-05-17T06:31:09.540Z,1.67
2019-05-17T06:33:37.005Z,1.63
2019-05-17T06:36:03.343Z,1.50
2019-05-17T06:38:29.561Z,1.45
2019-05-17T06:40:55.779Z,1.47
2019-05-17T06:43:22.032Z,1.60
2019-05-17T06:45:48.353Z,1.42
2019-05-17T06:48:14.598Z,1.70
2019-05-17T06:50:43.042Z,1.40
2019-05-17T06:53:09.053Z,1.62
2019-05-17T06:55:35.270Z,1.67
2019-05-17T06:58:01.820Z,1.62
2019-05-17T07:00:29.915Z,1.70
2019-05-17T07:02:56.331Z,1.32
2019-05-17T07:05:24.573Z,1.75
2019-05-17T07:07:50.785Z,1.42
2019-05-17T07:10:19.484Z,1.72
2019-05-17T07:12:55.945Z,1.62
2019-05-17T07:15:14.465Z,1.85
2019-05-17T07:17:40.696Z,1.70
2019-05-17T07:20:10.218Z,1.60
2019-05-17T07:22:35.633Z,1.50
2019-05-17T07:25:03.349Z,1.60
2019-05-17T07:27:38.714Z,1.80
2019-05-17T07:32:25.668Z,1.77
2019-05-17T07:34:52.853Z,1.70
2019-05-17T07:37:20.176Z,1.57
2019-05-17T07:39:57.905Z,1.30
2019-05-17T07:42:15.644Z,1.60
2019-05-17T07:44:44.055Z,1.60
2019-05-17T07:47:09.973Z,1.85
2019-05-17T07:49:36.267Z,1.30
2019-05-17T07:52:02.685Z,1.50
2019-05-17T07:54:30.309Z,1.40
2019-05-17T07:56:56.758Z,1.50
2019-05-17T07:59:23.041Z,1.45
2019-05-17T08:01:50.383Z,1.50
2019-05-17T08:04:16.818Z,1.50
2019-05-17T08:06:43.024Z,1.45
2019-05-17T08:09:13.980Z,1.50
2019-05-17T08:16:31.757Z,1.17
2019-05-17T08:19:00.154Z,1.40
2019-05-17T08:23:52.193Z,1.20
2019-05-17T08:26:20.053Z,1.40
2019-05-17T08:28:46.357Z,1.20
2019-05-17T08:31:12.642Z,1.52
2019-05-17T08:33:40.678Z,1.10
2019-05-17T08:38:35.382Z,1.10
2019-05-17T08:41:01.709Z,1.60
2019-05-17T08:43:41.847Z,1.57
2019-05-17T08:50:50.269Z,1.10
2019-05-17T08:53:16.488Z,1.30
2019-05-17T08:55:42.717Z,1.22
2019-05-17T08:58:10.207Z,1.00
2019-05-17T09:00:36.863Z,0.98
2019-05-17T09:03:03.483Z,1.20
2019-05-17T09:05:30.233Z,1.00
2019-05-17T09:07:59.958Z,0.90
2019-05-17T09:10:26.069Z,1.00
2019-05-17T09:12:52.287Z,1.20
2019-05-17T09:15:20.371Z,1.02
2019-05-17T09:20:12.949Z,0.90
2019-05-17T09:22:39.740Z,1.32
2019-05-17T09:25:07.408Z,0.80
2019-05-17T09:27:33.714Z,0.93
2019-05-17T09:30:00.156Z,1.00
2019-05-17T09:32:26.661Z,0.95
2019-05-17T09:34:52.881Z,0.80
2019-05-17T09:37:22.461Z,0.93
2019-05-17T09:42:15.222Z,0.80
2019-05-17T09:44:41.455Z,0.78
2019-05-17T09:47:10.140Z,0.80
2019-05-17T09:52:02.090Z,0.90
2019-05-17T09:54:41.472Z,0.80
2019-05-17T09:59:22.529Z,0.80
2019-05-17T10:01:49.475Z,0.75
2019-05-17T10:04:15.877Z,0.70
2019-05-17T10:06:42.095Z,0.70
2019-05-17T10:09:09.568Z,0.70
2019-05-17T10:11:36.113Z,0.70
2019-05-17T10:14:02.526Z,0.72
2019-05-17T10:16:30.728Z,0.70
2019-05-17T10:21:25.786Z,0.70
2019-05-17T10:23:51.257Z,0.70
2019-05-17T10:26:19.546Z,0.60
2019-05-17T10:31:12.321Z,0.80
2019-05-17T10:33:40.092Z,0.78
2019-05-17T10:36:06.461Z,0.80
2019-05-17T10:38:33.802Z,0.53
2019-05-17T10:41:00.124Z,0.57
2019-05-17T10:43:26.636Z,0.72
2019-05-17T10:45:52.879Z,0.70
2019-05-17T10:48:21.196Z,0.70
2019-05-17T10:55:41.314Z,0.82
2019-05-17T10:58:10.085Z,0.80
2019-05-17T11:00:36.782Z,0.80
2019-05-17T11:03:03.392Z,0.80
2019-05-17T11:05:30.842Z,0.70
2019-05-17T11:07:59.747Z,0.60
2019-05-17T11:10:26.029Z,1.12
2019-05-17T11:12:52.241Z,0.80
2019-05-17T11:15:18.927Z,0.80
2019-05-17T11:17:45.141Z,0.65
2019-05-17T11:20:25.051Z,0.75
2019-05-17T11:22:51.284Z,0.82
2019-05-17T11:25:17.620Z,0.65
2019-05-17T11:27:43.952Z,0.60
2019-05-17T11:30:10.357Z,0.60
2019-05-17T11:32:36.575Z,0.60
2019-05-17T11:35:04.113Z,0.42
2019-05-17T11:37:30.453Z,0.70
2019-05-17T11:39:56.665Z,0.78
2019-05-17T11:42:23.017Z,0.50
2019-05-17T11:44:49.329Z,0.72
2019-05-17T11:47:15.541Z,0.70
2019-05-17T11:49:41.781Z,0.60
2019-05-17T11:52:08.005Z,0.62
2019-05-17T11:54:34.318Z,0.60
2019-05-17T11:57:00.553Z,0.60
2019-05-17T11:59:26.761Z,0.50
2019-05-17T12:01:53.083Z,0.47
2019-05-17T12:04:19.413Z,0.50
2019-05-17T12:06:46.827Z,0.62
2019-05-17T12:09:13.125Z,0.57
2019-05-17T12:11:39.425Z,0.40
2019-05-17T12:14:05.635Z,0.40
2019-05-17T12:16:31.841Z,0.47
2019-05-17T12:18:58.073Z,0.40
2019-05-17T12:21:24.305Z,0.57
2019-05-17T12:23:50.637Z,0.50
2019-05-17T12:26:16.961Z,0.50
2019-05-17T12:28:43.178Z,0.42
2019-05-17T12:31:09.393Z,0.50
2019-05-17T12:33:35.626Z,0.50
2019-05-17T12:36:02.949Z,0.45
2019-05-17T12:38:29.307Z,0.50
2019-05-17T12:40:55.692Z,0.30
2019-05-17T12:43:22.029Z,0.50
2019-05-17T12:46:00.224Z,0.50
2019-05-17T12:50:42.474Z,0.40
2019-05-17T12:53:08.696Z,0.55
2019-05-17T12:55:35.025Z,0.55
2019-05-17T12:58:01.257Z,0.50
2019-05-17T13:00:27.567Z,0.35
2019-05-17T13:02:53.813Z,0.50
2019-05-17T13:05:20.039Z,0.40
2019-05-17T13:07:46.377Z,0.50
2019-05-17T13:10:12.702Z,0.40
2019-05-17T13:12:38.925Z,0.60
2019-05-17T13:15:06.607Z,0.50
2019-05-17T13:17:32.952Z,0.45
2019-05-17T13:19:59.173Z,0.47
2019-05-17T13:22:25.394Z,0.50
2019-05-17T13:24:51.690Z,0.40
2019-05-17T13:27:18.000Z,0.40
2019-05-17T13:29:44.216Z,0.55
2019-05-17T13:32:10.449Z,0.55
2019-05-17T13:34:36.673Z,0.40
2019-05-17T13:37:02.897Z,0.60
2019-05-17T13:39:29.149Z,0.50
2019-05-17T13:41:55.378Z,0.60
2019-05-17T13:44:21.766Z,0.42
2019-05-17T13:46:48.101Z,0.50
2019-05-17T13:49:14.317Z,0.30
2019-05-17T13:51:40.539Z,0.65
2019-05-17T13:54:06.804Z,0.50
2019-05-17T13:56:33.085Z,0.40
2019-05-17T13:58:59.678Z,0.50
2019-05-17T14:01:26.006Z,0.60
2019-05-17T14:03:52.246Z,0.50
2019-05-17T14:06:18.538Z,0.45
2019-05-17T14:08:44.864Z,0.40
2019-05-17T14:11:11.177Z,0.68
2019-05-17T14:13:37.598Z,0.40
2019-05-17T14:16:04.025Z,0.40
2019-05-17T14:18:30.324Z,0.53
2019-05-17T14:20:56.648Z,0.62
2019-05-17T14:23:22.972Z,0.50
2019-05-17T14:25:49.184Z,0.50
2019-05-17T14:28:15.521Z,0.40
2019-05-17T14:30:41.837Z,0.50
2019-05-17T14:33:08.065Z,0.40
2019-05-17T14:35:35.382Z,0.42
2019-05-17T14:38:01.625Z,0.47
2019-05-17T14:41:00.516Z,0.50
2019-05-17T14:45:22.169Z,0.40
2019-05-17T14:47:48.432Z,0.47
2019-05-17T14:50:15.206Z,0.60
2019-05-17T14:52:41.542Z,0.60
2019-05-17T14:55:08.115Z,0.88
2019-05-17T14:57:34.341Z,0.60
2019-05-17T15:00:00.591Z,0.40
2019-05-17T15:02:26.929Z,0.57
2019-05-17T15:04:53.261Z,0.60
2019-05-17T15:07:19.600Z,0.55
2019-05-17T15:09:45.926Z,0.33
2019-05-17T15:12:25.837Z,0.50
2019-05-17T15:17:06.604Z,0.40
2019-05-17T15:19:32.934Z,0.50
2019-05-17T15:21:59.297Z,0.60
2019-05-17T15:24:25.516Z,0.50
2019-05-17T15:27:04.617Z,0.50
2019-05-17T15:31:45.977Z,0.42
2019-05-17T15:34:12.294Z,0.40
2019-05-17T15:36:38.518Z,0.40
2019-05-17T15:39:05.237Z,0.40
2019-05-17T15:41:31.653Z,0.33
2019-05-17T15:43:57.885Z,0.60
2019-05-17T15:46:24.185Z,0.60
2019-05-17T15:48:50.596Z,0.50
2019-05-17T15:51:16.817Z,0.50
2019-05-17T15:53:43.041Z,0.40
2019-05-17T15:56:09.368Z,0.50
2019-05-17T15:58:35.596Z,0.40
2019-05-17T16:01:01.896Z,0.40
2019-05-17T16:03:28.305Z,0.62
2019-05-17T16:05:54.526Z,0.60
2019-05-17T16:08:20.758Z,0.40
2019-05-17T16:10:46.988Z,0.50
2019-05-17T16:13:13.321Z,0.50
2019-05-17T16:15:39.665Z,0.40
2019-05-17T16:18:05.897Z,0.65
2019-05-17T16:20:32.143Z,0.50
2019-05-17T16:22:58.468Z,0.40
2019-05-17T16:25:24.693Z,0.50
2019-05-17T16:27:51.156Z,0.40
2019-05-17T16:30:17.561Z,0.40
2019-05-17T16:32:43.792Z,0.60
2019-05-17T16:35:10.321Z,0.40
2019-05-17T16:37:36.545Z,0.50
2019-05-17T16:40:06.192Z,0.40
2019-05-17T16:42:32.531Z,0.40
2019-05-17T16:44:58.742Z,0.40
2019-05-17T16:47:25.057Z,0.70
2019-05-17T16:49:51.408Z,0.40
2019-05-17T16:52:17.731Z,0.40
2019-05-17T16:54:43.949Z,0.40
2019-05-17T16:57:10.285Z,0.57
2019-05-17T16:59:36.493Z,0.40
2019-05-17T17:02:03.019Z,0.40
2019-05-17T17:04:29.345Z,0.50
2019-05-17T17:06:55.587Z,0.30
2019-05-17T17:09:21.888Z,0.50
2019-05-17T17:11:48.136Z,0.50
2019-05-17T17:14:14.451Z,0.35
2019-05-17T17:16:40.946Z,0.40
2019-05-17T17:19:07.198Z,0.40
2019-05-17T17:21:33.609Z,0.45
2019-05-17T17:23:59.925Z,0.50
2019-05-17T17:26:26.173Z,0.40
2019-05-17T17:28:52.406Z,0.50
2019-05-17T17:31:18.823Z,0.30
2019-05-17T17:33:45.075Z,0.30
2019-05-17T17:36:11.413Z,0.30
2019-05-17T17:38:37.714Z,0.33
2019-05-17T17:41:04.032Z,0.60
2019-05-17T17:43:31.365Z,0.30
2019-05-17T17:45:58.779Z,0.50
2019-05-17T17:48:25.149Z,0.50
2019-05-17T17:50:51.471Z,0.40
2019-05-17T17:53:17.793Z,0.50
2019-05-17T17:55:44.029Z,0.35
2019-05-17T17:58:10.258Z,0.53
2019-05-17T18:00:36.670Z,0.50
2019-05-17T18:03:03.110Z,0.30
2019-05-17T18:05:29.429Z,0.50
2019-05-17T18:07:55.897Z,0.50
2019-05-17T18:10:28.154Z,0.50
2019-05-17T18:12:54.494Z,0.50
2019-05-17T18:15:24.597Z,0.50
2019-05-17T18:17:50.841Z,0.45
2019-05-17T18:20:17.061Z,0.40
2019-05-17T18:22:43.280Z,0.40
2019-05-17T18:25:09.617Z,0.37
2019-05-17T18:27:35.929Z,0.53
2019-05-17T18:30:04.357Z,0.50
2019-05-17T18:32:31.681Z,0.40
2019-05-17T18:34:57.906Z,0.50
2019-05-17T18:37:24.129Z,0.50
2019-05-17T18:39:50.477Z,0.50
2019-05-17T18:42:16.889Z,0.40
2019-05-17T18:44:43.116Z,0.60
2019-05-17T18:47:09.451Z,0.80
2019-05-17T18:49:35.676Z,0.40
2019-05-17T18:52:01.996Z,0.50
2019-05-17T18:54:28.341Z,0.50
2019-05-17T18:56:54.558Z,0.50
2019-05-17T18:59:20.781Z,0.60
2019-05-17T19:01:47.086Z,0.42
2019-05-17T19:04:13.311Z,0.60
2019-05-17T19:06:39.623Z,0.40
2019-05-17T19:09:06.560Z,0.70
2019-05-17T19:11:32.881Z,0.70
2019-05-17T19:13:59.092Z,0.57
2019-05-17T19:16:25.336Z,0.40
2019-05-17T19:18:51.629Z,0.50
2019-05-17T19:21:17.929Z,0.50
2019-05-17T19:23:44.174Z,0.60
2019-05-17T19:26:10.394Z,0.57
2019-05-17T19:28:36.713Z,0.53
2019-05-17T19:31:03.285Z,0.60
2019-05-17T19:33:29.517Z,0.40
2019-05-17T19:35:55.738Z,0.68
2019-05-17T19:38:21.977Z,0.35
2019-05-17T19:40:48.289Z,0.70
2019-05-17T19:43:14.609Z,0.40
2019-05-17T19:45:41.261Z,0.60
2019-05-17T19:48:07.501Z,0.50
2019-05-17T19:50:33.806Z,0.60
2019-05-17T19:53:00.053Z,0.60
2019-05-17T19:55:26.356Z,0.60
2019-05-17T19:57:52.585Z,0.53
2019-05-17T20:00:21.026Z,0.40
2019-05-17T20:02:47.505Z,0.70
2019-05-17T20:05:13.922Z,0.40
2019-05-17T20:07:43.132Z,0.50
2019-05-17T20:10:11.549Z,0.82
2019-05-17T20:12:37.765Z,0.45
2019-05-17T20:15:16.849Z,0.40
2019-05-17T20:17:33.905Z,0.50
2019-05-17T20:20:00.121Z,0.40
2019-05-17T20:22:26.354Z,0.45
2019-05-17T20:24:52.577Z,0.60
2019-05-17T20:27:18.797Z,0.70
2019-05-17T20:29:45.041Z,0.68
2019-05-17T20:32:11.363Z,0.50
2019-05-17T20:34:37.681Z,0.75
2019-05-17T20:37:05.012Z,0.60
2019-05-17T20:39:31.229Z,0.50
2019-05-17T20:41:57.627Z,0.60
2019-05-17T20:44:24.001Z,0.70
2019-05-17T20:46:50.217Z,0.90
2019-05-17T20:49:16.441Z,0.90
2019-05-17T20:51:42.677Z,1.20
2019-05-17T20:54:08.901Z,0.90
2019-05-17T20:56:35.328Z,0.78
2019-05-17T20:59:01.669Z,0.60
2019-05-17T21:01:27.889Z,0.55
2019-05-17T21:03:54.176Z,0.90
2019-05-17T21:06:20.714Z,0.57
2019-05-17T21:08:46.945Z,0.70
2019-05-17T21:11:13.257Z,0.50
2019-05-17T21:13:39.506Z,0.50
2019-05-17T21:16:05.833Z,0.70
2019-05-17T21:18:32.165Z,0.50
2019-05-17T21:20:58.501Z,0.72
2019-05-17T21:23:24.756Z,0.60
2019-05-17T21:25:51.056Z,0.90
2019-05-17T21:28:17.309Z,1.00
2019-05-17T21:30:43.521Z,0.55
2019-05-17T21:33:09.741Z,0.50
2019-05-17T21:35:35.976Z,0.57
2019-05-17T21:38:02.403Z,0.60
2019-05-17T21:40:48.610Z,0.60
2019-05-17T21:43:14.937Z,0.60
2019-05-17T21:45:41.205Z,0.60
2019-05-17T21:48:07.448Z,0.60
2019-05-17T21:50:33.665Z,0.50
2019-05-17T21:52:59.885Z,0.68
2019-05-17T21:55:26.129Z,0.40
2019-05-17T21:57:52.344Z,0.62
2019-05-17T22:00:50.146Z,0.70
2019-05-17T22:03:16.557Z,0.75
2019-05-17T22:05:42.837Z,0.80
2019-05-17T22:08:09.157Z,0.70
2019-05-17T22:10:35.368Z,0.68
2019-05-17T22:13:01.597Z,0.75
2019-05-17T22:15:27.925Z,0.82
2019-05-17T22:17:54.133Z,0.60
2019-05-17T22:20:20.354Z,0.60
2019-05-17T22:22:46.581Z,0.72
2019-05-17T22:25:12.800Z,0.60
2019-05-17T22:27:39.130Z,0.70
2019-05-17T22:30:05.759Z,0.60
2019-05-17T22:32:31.965Z,0.78
2019-05-17T22:34:58.189Z,0.60
2019-05-17T22:37:24.617Z,0.75
2019-05-17T22:39:50.835Z,0.90
2019-05-17T22:42:17.055Z,0.53
2019-05-17T22:44:43.391Z,0.80
2019-05-17T22:47:10.024Z,1.05
2019-05-17T22:49:36.246Z,0.75
2019-05-17T22:52:02.576Z,0.82
2019-05-17T22:54:28.795Z,0.80
2019-05-17T22:56:55.125Z,0.70
2019-05-17T22:59:21.386Z,0.75
2019-05-17T23:01:47.609Z,1.07
2019-05-17T23:04:13.829Z,0.70
2019-05-17T23:06:40.073Z,0.72
2019-05-17T23:09:06.553Z,0.82
2019-05-17T23:11:32.769Z,0.98
2019-05-17T23:13:59.101Z,0.85
2019-05-17T23:16:25.323Z,0.90
2019-05-17T23:18:53.540Z,1.22
2019-05-17T23:21:19.781Z,1.10
2019-05-17T23:23:46.009Z,0.90
2019-05-17T23:26:12.228Z,0.90
2019-05-17T23:28:38.469Z,0.80
2019-05-17T23:31:04.768Z,0.88
2019-05-17T23:33:30.985Z,0.80
2019-05-17T23:35:57.213Z,0.75
2019-05-17T23:38:23.437Z,0.90
2019-05-17T23:40:49.725Z,0.90
2019-05-17T23:43:16.049Z,0.90
2019-05-17T23:45:42.280Z,0.60
2019-05-17T23:48:08.619Z,0.65
2019-05-17T23:50:34.946Z,0.70
2019-05-17T23:53:01.249Z,1.12
2019-05-17T23:55:27.469Z,1.00
2019-05-17T23:57:53.689Z,0.70
